22 mai 2022

Temps Code Temps Temp. Vue Des nuages Vent METAR/SPECI
08:50
V
16 °C 10 km+ - Var   Var 1 kt METAR EBCI 220650Z VRB01KT CAVOK 16/10 Q1017 NOSIG
08:20
V
14 °C 10 km+ - Var   Var 1 kt METAR EBCI 220620Z VRB01KT CAVOK 14/10 Q1017 NOSIG
07:50
V
13 °C 10 km+ - Var   Var 2 kt METAR EBCI 220550Z VRB02KT CAVOK 13/11 Q1018 NOSIG
07:20
V
12 °C 10 km+ - 100°   100° 2 kt METAR EBCI 220520Z 10002KT 9999 FEW034 12/10 Q1018 NOSIG
06:50
V
11 °C 10 km+ - Var   Var 2 kt METAR EBCI 220450Z VRB02KT 9999 FEW034 11/09 Q1018 NOSIG
06:20
V
10 °C 10 km+ - 060°   060° 2 kt METAR EBCI 220420Z 06002KT 9999 FEW034 10/09 Q1018 NOSIG
05:50
V
9 °C 10 km+ - 070°   070° 1 kt METAR EBCI 220350Z 07001KT 9999 FEW045 09/08 Q1018 NOSIG
05:20
V
9 °C 10 km+ - 080°   080° 1 kt METAR EBCI 220320Z 08001KT 9999 FEW045 09/08 Q1018 NOSIG
04:50
V
10 °C 10 km+ - Var   Var 1 kt METAR EBCI 220250Z VRB01KT 9999 FEW045 10/08 Q1018 NOSIG
04:20
V
10 °C 10 km+ - Var   Var 1 kt METAR EBCI 220220Z VRB01KT 9999 FEW045 10/08 Q1018 NOSIG
03:50
V
11 °C 10 km+ - 110°   110° 2 kt METAR EBCI 220150Z 11002KT 9999 FEW045 11/09 Q1018 NOSIG
03:20
V
11 °C 10 km+ - 090°   090° 2 kt METAR EBCI 220120Z 09002KT 9999 FEW045 11/09 Q1019 NOSIG
02:50
V
11 °C 10 km+ - 060°   060° 3 kt METAR EBCI 220050Z 06003KT 010V070 9999 FEW045 11/09 Q1019 NOSIG
02:20
V
11 °C 10 km+ - 050°   050° 4 kt METAR EBCI 220020Z 05004KT 360V060 9999 FEW045 11/09 Q1019 NOSIG
01:50
V
12 °C 10 km+ - 060°   060° 3 kt METAR EBCI 212350Z 06003KT 9999 FEW045 12/09 Q1019 NOSIG
01:20
V
12 °C 10 km+ - 040°   040° 4 kt METAR EBCI 212320Z 04004KT 9999 FEW045 12/08 Q1020 NOSIG
00:50
V
12 °C 10 km+ - 360°   360° 3 kt METAR EBCI 212250Z 36003KT 330V030 9999 FEW045 12/08 Q1020 NOSIG
00:20
V
13 °C 10 km+ - 340°   340° 4 kt METAR EBCI 212220Z 34004KT 9999 FEW045 13/08 Q1020 NOSIG

21 mai 2022

Temps Code Temps Temp. Vue Des nuages Vent METAR/SPECI
23:50
V
13 °C 10 km+ - Var   Var 1 kt METAR EBCI 212150Z VRB01KT 9999 FEW045 13/07 Q1020 NOSIG
23:20
V
13 °C 10 km+ - Var   Var 1 kt METAR EBCI 212120Z VRB01KT CAVOK 13/07 Q1020 NOSIG
22:50
V
14 °C 10 km+ - Var   Var 2 kt METAR EBCI 212050Z VRB02KT CAVOK 14/07 Q1020 NOSIG
22:20
V
15 °C 10 km+ - Var   Var 2 kt METAR EBCI 212020Z VRB02KT CAVOK 15/08 Q1021 NOSIG
21:50
V
15 °C 10 km+ - Var   Var 2 kt METAR EBCI 211950Z VRB02KT CAVOK 15/08 Q1020 NOSIG
21:20
V
15 °C 10 km+ - 280°   280° 3 kt METAR EBCI 211920Z 28003KT CAVOK 15/07 Q1020 NOSIG
20:50
V
16 °C 10 km+ - 260°   260° 3 kt METAR EBCI 211850Z 26003KT 240V300 CAVOK 16/07 Q1020 NOSIG
20:20
V
17 °C 10 km+ - 240°   240° 7 kt METAR EBCI 211820Z 24007KT 210V270 9999 FEW046 17/06 Q1020 NOSIG
19:50
V
17 °C 10 km+ - 250°   250° 7 kt METAR EBCI 211750Z 25007KT 230V290 9999 FEW046 17/07 Q1020 NOSIG
19:20
V
18 °C 10 km+ - 250°   250° 7 kt METAR EBCI 211720Z 25007KT 200V290 9999 FEW046 18/07 Q1020 NOSIG
18:50
V
18 °C 10 km+ - 250°   250° 7 kt METAR EBCI 211650Z 25007KT 220V300 9999 FEW046 18/07 Q1021 NOSIG
18:20
V
18 °C 10 km+ - 240°   240° 9 kt METAR EBCI 211620Z 24009KT 9999 FEW046 18/07 Q1021 NOSIG
17:50
V
18 °C 10 km+ - 250°   250° 7 kt METAR EBCI 211550Z 25007KT 180V300 9999 FEW046 18/07 Q1021 NOSIG
17:20
V
18 °C 10 km+ - 260°   260° 7 kt METAR EBCI 211520Z 26007KT 210V310 9999 FEW042 18/07 Q1021 NOSIG
16:50
V
19 °C 10 km+ - 240°   240° 9 kt METAR EBCI 211450Z 24009KT 220V300 9999 FEW042 19/07 Q1022 NOSIG
16:20
V
18 °C 10 km+ - 250°   250° 9 kt METAR EBCI 211420Z 25009KT 210V280 9999 FEW042 18/07 Q1022 NOSIG
15:50
V
19 °C 10 km+ - 250°   250° 8 kt METAR EBCI 211350Z 25008KT 210V280 9999 FEW042 19/08 Q1022 NOSIG
15:20
V
19 °C 10 km+ - 270°   270° 7 kt METAR EBCI 211320Z 27007KT 200V310 9999 FEW039 19/08 Q1022 NOSIG
14:50
V
18 °C 10 km+ - 250°   250° 9 kt METAR EBCI 211250Z 25009KT 210V280 9999 FEW036 18/08 Q1023 NOSIG
14:20
V
17 °C 10 km+ - 260°   260° 6 kt METAR EBCI 211220Z 26006KT 210V310 9999 FEW036 17/09 Q1023 NOSIG
13:50
V
17 °C 10 km+ - 250°   250° 8 kt METAR EBCI 211150Z 25008KT 220V320 9999 FEW036 17/08 Q1023 NOSIG
13:20
V
17 °C 10 km+ - 270°   270° 5 kt METAR EBCI 211120Z 27005KT 220V330 9999 FEW032 17/09 Q1023 NOSIG
12:50
V
16 °C 10 km+ - 270°   270° 6 kt METAR EBCI 211050Z 27006KT 230V340 9999 FEW031 16/09 Q1023 NOSIG
12:20
V
16 °C 10 km+ - 290°   290° 5 kt METAR EBCI 211020Z 29005KT 250V010 9999 FEW031 16/09 Q1023 NOSIG
11:50
V
16 °C 10 km+ - 250°   250° 9 kt METAR EBCI 210950Z 25009KT 210V300 9999 FEW031 16/08 Q1023 NOSIG
11:20
V
16 °C 10 km+ - 260°   260° 8 kt METAR EBCI 210920Z 26008KT 220V320 9999 FEW026 16/09 Q1023 NOSIG
10:50
V
15 °C 10 km+ - 280°   280° 7 kt METAR EBCI 210850Z 28007KT 220V320 9999 FEW024 15/09 Q1023 NOSIG
10:20
V
14 °C 10 km+ - 270°   270° 8 kt METAR EBCI 210820Z 27008KT 230V300 9999 FEW024 14/08 Q1023 NOSIG
09:50
V
14 °C 10 km+ - 250°   250° 9 kt METAR EBCI 210750Z 25009KT 220V290 9999 FEW020 14/09 Q1023 NOSIG
09:20
V
14 °C 10 km+ - 250°   250° 10 kt METAR EBCI 210720Z 25010KT 9999 FEW016 14/09 Q1023 NOSIG
08:50
V
13 °C 10 km+ - 240°   240° 11 kt METAR EBCI 210650Z 24011KT 200V260 9999 FEW014 13/09 Q1023 NOSIG
08:20
V
12 °C 10 km+ - 240°   240° 10 kt METAR EBCI 210620Z 24010KT 9999 FEW012 12/09 Q1023 NOSIG
07:50
V
12 °C 10 km+ - 240°   240° 12 kt METAR EBCI 210550Z 24012KT 9999 FEW012 12/09 Q1023 NOSIG
07:20
V
11 °C 10 km+ - 240°   240° 9 kt METAR EBCI 210520Z 24009KT 9999 FEW012 11/09 Q1023 TEMPO BKN012
06:50
V
11 °C 10 km+ - 240°   240° 10 kt METAR EBCI 210450Z 24010KT 9999 FEW012 11/09 Q1022 TEMPO BKN012
06:20
V
10 °C 10 km+ - 230°   230° 10 kt METAR EBCI 210420Z 23010KT 9999 SCT012 10/08 Q1022 TEMPO BKN012
05:50
V
10 °C 10 km+ - 230°   230° 9 kt METAR EBCI 210350Z 23009KT 9999 FEW012 10/08 Q1022 TEMPO BKN012
05:20
V
10 °C 10 km+ - 220°   220° 10 kt METAR EBCI 210320Z 22010KT 9999 SCT018 10/08 Q1022 TEMPO BKN012
04:50
M
10 °C 10 km+ 1.800 ft 220°   220° 9 kt METAR EBCI 210250Z 22009KT 9999 BKN018 10/08 Q1022 NOSIG
04:20
V
10 °C 10 km+ - 240°   240° 11 kt METAR EBCI 210220Z 24011KT 9999 SCT017 10/08 Q1022 NOSIG
03:50
V
10 °C 10 km+ - 230°   230° 8 kt METAR EBCI 210150Z 23008KT 9999 FEW026 10/07 Q1022 NOSIG
03:20
V
10 °C 10 km+ - 220°   220° 11 kt METAR EBCI 210120Z 22011KT 9999 FEW026 10/07 Q1022 NOSIG
02:50
V
10 °C 10 km+ - 220°   220° 8 kt METAR EBCI 210050Z 22008KT CAVOK 10/07 Q1022 NOSIG
02:20
V
10 °C 10 km+ - 220°   220° 8 kt METAR EBCI 210020Z 22008KT CAVOK 10/07 Q1022 NOSIG
01:50
V
10 °C 10 km+ - 220°   220° 9 kt METAR EBCI 202350Z 22009KT CAVOK 10/08 Q1022 NOSIG
01:20
V
10 °C 10 km+ - 220°   220° 10 kt METAR EBCI 202320Z 22010KT CAVOK 10/08 Q1022 NOSIG
00:50
V
10 °C 10 km+ - 230°   230° 8 kt METAR EBCI 202250Z 23008KT CAVOK 10/08 Q1022 NOSIG
00:20
V
10 °C 10 km+ - 230°   230° 9 kt METAR EBCI 202220Z 23009KT 9999 FEW020 10/08 Q1022 NOSIG

20 mai 2022

Temps Code Temps Temp. Vue Des nuages Vent METAR/SPECI
23:50
V
11 °C 10 km+ - 230°   230° 9 kt METAR EBCI 202150Z 23009KT 9999 FEW020 11/09 Q1022 NOSIG
23:20
V
11 °C 10 km+ - 240°   240° 9 kt METAR EBCI 202120Z 24009KT 9999 FEW020 11/08 Q1022 NOSIG
22:50
V
12 °C 10 km+ - 240°   240° 10 kt METAR EBCI 202050Z 24010KT 9999 FEW018 SCT023 12/10 Q1022 NOSIG
22:20
M
12 °C 10 km+ 2.300 ft 240°   240° 8 kt METAR EBCI 202020Z 24008KT 9999 SCT018 BKN023 12/10 Q1021 NOSIG
21:50
M
12 °C 10 km+ 2.500 ft 250°   250° 7 kt METAR EBCI 201950Z 25007KT 9999 SCT022 BKN025 12/10 Q1021 NOSIG
21:20
M
12 °C 10 km+ 2.800 ft 240°   240° 9 kt METAR EBCI 201920Z 24009KT 9999 SCT017 BKN028 12/10 Q1021 NOSIG
20:50
M
12 °C 10 km+ 2.400 ft 240°   240° 7 kt METAR EBCI 201850Z 24007KT 9999 FEW013 BKN024 12/10 Q1020 NOSIG
20:20
V
13 °C 10 km+ - 240°   240° 9 kt METAR EBCI 201820Z 24009KT 9999 FEW013 13/09 Q1020 NOSIG
19:50
V
13 °C 10 km+ - 260°   260° 7 kt METAR EBCI 201750Z 26007KT 220V300 9999 FEW013 SCT026 13/10 Q1020 NOSIG
19:20
M
13 °C 10 km+ 1.100 ft 270°   270° 9 kt METAR EBCI 201720Z 27009KT 230V320 9999 BKN011 13/11 Q1019 BECMG SCT015
18:50
M
13 °C 10 km+ 1.100 ft 270°   270° 12 kt METAR EBCI 201650Z 27012KT 240V320 9999 BKN011 13/11 Q1019 NOSIG
18:20
M
14 °C 10 km+ 1.100 ft 280°   280° 10 kt METAR EBCI 201620Z 28010KT 240V310 9999 BKN011 14/12 Q1018 NOSIG
17:50
I
14 °C 10 km+ 800 ft 280°   280° 9 kt METAR EBCI 201550Z 28009KT 250V320 9999 BKN008 14/13 Q1017 BECMG BKN012
17:20
I
15 °C 8 km 600 ft 280°   280° 10 kt METAR EBCI 201520Z 28010KT 240V320 8000 BKN006 15/14 Q1017 NOSIG
16:50
I
16 °C 8 km 700 ft 240°   240° 14 kt METAR EBCI 201450Z 24014KT 8000 -SHRA BKN007 16/15 Q1016 NOSIG
16:20
V
17 °C 10 km+ - 250°   250° 16 kt METAR EBCI 201420Z 25016KT 9999 SCT010 17/15 Q1016 RESHRA TEMPO 4000 SHRA
15:50
V
18 °C 10 km+ - 240°   240° 17 kt METAR EBCI 201350Z 24017KT 9999 FEW021 18/16 Q1015 RESHRA TEMPO 4000 SHRA
15:20
M
17 °C 6 km - 240°   240° 17 kt METAR EBCI 201320Z 24017KT 6000 SHRA FEW043 17/15 Q1016 BECMG 9999 NSW TEMPO 4000 SHRA
14:50
V
19 °C 10 km+ - 230°   230° 13 kt METAR EBCI 201250Z 23013KT 9999 -SHRA FEW046 19/16 Q1016 TEMPO 4000 SHRA
14:20
V
19 °C 10 km+ - 200°   200° 10 kt METAR EBCI 201220Z 20010KT 9999 FEW040CB 19/17 Q1015 TEMPO 4000 SHRA
13:50
V
18 °C 10 km+ - 170°   170° 9 kt METAR EBCI 201150Z 17009KT 140V200 9999 -SHRA SCT040CB 18/17 Q1015 RETS TEMPO 4000 SHRA
13:20
M
16 °C 6 km 4.000 ft 230°   230° 9 kt METAR EBCI 201120Z 23009KT 150V280 6000 -TSRA BKN040CB 16/15 Q1016 TEMPO 4000 SHRA
12:50
M
20 °C 6 km - Var   Var 2 kt METAR EBCI 201050Z VRB02KT 6000 -TSRA SCT050CB 20/17 Q1016 TEMPO 2000 TSRA
12:20
V
20 °C 10 km+ - 120°   120° 4 kt METAR EBCI 201020Z 12004KT 9999 -SHRA NSC 20/17 Q1016 TEMPO 2000 TSRA
11:50
V
20 °C 10 km+ - 100°   100° 8 kt METAR EBCI 200950Z 10008KT 9999 -SHRA NSC 20/16 Q1016 TEMPO 4000 SHRA
11:20
V
20 °C 8 km - 120°   120° 3 kt METAR EBCI 200920Z 12003KT 080V160 8000 -SHRA NSC 20/15 Q1017 TEMPO 4000 SHRA
10:50
V
19 °C 8 km - 110°   110° 5 kt METAR EBCI 200850Z 11005KT 8000 NSC 19/15 Q1018 TEMPO 4000 SHRA
10:20
V
19 °C 8 km - 140°   140° 3 kt METAR EBCI 200820Z 14003KT 080V190 8000 NSC 19/14 Q1018 NOSIG
09:50
V
19 °C 8 km - 100°   100° 4 kt METAR EBCI 200750Z 10004KT 070V140 8000 NSC 19/14 Q1019 NOSIG
09:20
M
18 °C 6 km - 080°   080° 4 kt METAR EBCI 200720Z 08004KT 050V130 6000 NSC 18/14 Q1019 NOSIG
Données plus anciennes

Télécharge notre application

Un accès facile à toute la météo aéronautique sur ton téléphone portable et ta tablette.
Avec de nombreuses fonctionnalités non disponibles sur le site Web, comme la prise en charge hors ligne et une liste personnelle d'aéroports.

Nous et des tiers suivons ton comportement sur Internet sur notre site Web à l'aide de cookies. Si tu continues, nous supposons que tu acceptes notre politique en matière de cookies. Apprendre plus